createdAt,value
2019-05-01T00:07:40.882Z,10.90
2019-05-01T00:17:46.903Z,10.90
2019-05-01T00:27:52.408Z,10.90
2019-05-01T00:37:57.678Z,10.70
2019-05-01T00:48:02.957Z,10.70
2019-05-01T00:58:29.460Z,10.70
2019-05-01T01:08:35.448Z,10.60
2019-05-01T01:18:40.931Z,10.50
2019-05-01T01:28:46.267Z,10.50
2019-05-01T01:38:51.586Z,10.70
2019-05-01T01:48:58.440Z,11.00
2019-05-01T01:59:04.006Z,11.00
2019-05-01T02:09:09.811Z,11.30
2019-05-01T02:19:15.208Z,11.40
2019-05-01T02:29:26.350Z,11.50
2019-05-01T02:39:32.564Z,11.50
2019-05-01T02:49:52.241Z,11.60
2019-05-01T02:59:58.232Z,11.80
2019-05-01T03:10:08.876Z,11.90
2019-05-01T03:20:25.590Z,11.90
2019-05-01T03:30:31.022Z,12.10
2019-05-01T03:40:36.905Z,12.20
2019-05-01T03:50:46.174Z,12.40
2019-05-01T04:01:04.286Z,12.30
2019-05-01T04:11:09.927Z,12.50
2019-05-01T04:21:15.937Z,12.70
2019-05-01T04:31:33.107Z,12.70
2019-05-01T04:41:38.348Z,12.80
2019-05-01T04:51:44.441Z,12.70
2019-05-01T05:02:09.762Z,12.70
2019-05-01T05:12:22.192Z,12.70
2019-05-01T05:22:27.753Z,12.80
2019-05-01T05:32:35.947Z,13.00
2019-05-01T05:42:41.522Z,13.10
2019-05-01T05:52:54.518Z,13.20
2019-05-01T06:03:35.240Z,13.40
2019-05-01T06:13:59.403Z,13.50
2019-05-01T06:24:12.942Z,13.60
2019-05-01T06:34:18.358Z,13.80
2019-05-01T06:44:39.978Z,14.10
2019-05-01T06:54:42.726Z,14.30
2019-05-01T07:04:49.442Z,14.40
2019-05-01T07:14:55.118Z,14.40
2019-05-01T07:25:04.136Z,14.40
2019-05-01T07:35:08.442Z,14.50
2019-05-01T07:45:26.655Z,14.60
2019-05-01T07:55:38.657Z,14.70
2019-05-01T08:05:45.449Z,15.20
2019-05-01T08:15:51.974Z,15.70
2019-05-01T08:25:58.056Z,16.30
2019-05-01T08:36:06.935Z,16.50
2019-05-01T08:46:28.634Z,16.70
2019-05-01T08:56:34.232Z,16.90
2019-05-01T09:06:43.910Z,16.80
2019-05-01T09:16:46.755Z,16.70
2019-05-01T09:27:00.181Z,16.70
2019-05-01T09:37:05.603Z,16.80
2019-05-01T09:47:11.289Z,17.10
2019-05-01T09:57:17.370Z,17.40
2019-05-01T10:07:23.845Z,17.60
2019-05-01T10:17:29.826Z,17.90
2019-05-01T10:27:37.439Z,18.20
2019-05-01T10:37:43.045Z,19.10
2019-05-01T10:47:48.410Z,20.70
2019-05-01T10:57:53.911Z,22.30
2019-05-01T11:07:59.524Z,23.50
2019-05-01T11:18:04.931Z,24.80
2019-05-01T11:28:10.324Z,26.30
2019-05-01T11:38:29.197Z,27.20
2019-05-01T11:48:35.063Z,26.90
2019-05-01T11:58:40.653Z,27.30
2019-05-01T12:08:46.312Z,28.10
2019-05-01T12:18:51.599Z,29.10
2019-05-01T12:28:56.987Z,28.60
2019-05-01T12:39:02.430Z,27.50
2019-05-01T12:49:07.843Z,28.40
2019-05-01T12:59:13.376Z,28.60
2019-05-01T13:09:19.226Z,29.70
2019-05-01T13:19:24.479Z,30.30
2019-05-01T13:29:34.794Z,30.40
2019-05-01T13:39:40.784Z,30.20
2019-05-01T13:49:46.288Z,30.40
2019-05-01T13:59:51.871Z,30.20
2019-05-01T14:09:57.212Z,30.00
2019-05-01T14:20:09.936Z,28.70
2019-05-01T14:30:16.125Z,28.10
2019-05-01T14:40:22.023Z,27.40
2019-05-01T14:50:27.377Z,26.70
2019-05-01T15:00:32.904Z,25.90
2019-05-01T15:10:38.191Z,25.50
2019-05-01T15:20:46.470Z,24.90
2019-05-01T15:30:51.186Z,25.00
2019-05-01T15:41:03.269Z,26.30
2019-05-01T15:51:08.566Z,29.10
2019-05-01T16:01:14.294Z,32.20
2019-05-01T16:11:56.837Z,29.70
2019-05-01T16:22:02.114Z,27.30
2019-05-01T16:32:07.467Z,26.10
2019-05-01T16:42:13.001Z,25.50
2019-05-01T16:52:21.131Z,25.00
2019-05-01T17:02:44.630Z,24.70
2019-05-01T17:12:53.332Z,24.40
2019-05-01T17:22:58.722Z,24.10
2019-05-01T17:33:04.268Z,23.70
2019-05-01T17:43:13.490Z,23.40
2019-05-01T17:53:17.058Z,23.10
2019-05-01T18:03:40.426Z,22.80
2019-05-01T18:13:45.683Z,22.50
2019-05-01T18:24:03.482Z,21.90
2019-05-01T18:34:08.819Z,21.40
2019-05-01T18:44:14.615Z,20.90
2019-05-01T18:54:20.148Z,20.60
2019-05-01T19:04:25.553Z,20.50
2019-05-01T19:14:30.980Z,20.30
2019-05-01T19:24:37.874Z,20.20
2019-05-01T19:34:43.341Z,19.90
2019-05-01T19:44:51.024Z,19.80
2019-05-01T19:54:55.715Z,19.70
2019-05-01T20:05:01.112Z,19.30
2019-05-01T20:15:07.466Z,19.00
2019-05-01T20:25:14.780Z,18.50
2019-05-01T20:35:23.879Z,18.20
2019-05-01T20:45:27.108Z,17.90
2019-05-01T20:55:32.498Z,17.60
2019-05-01T21:05:43.904Z,17.20
2019-05-01T21:15:49.168Z,16.80
2019-05-01T21:25:54.511Z,16.40
2019-05-01T21:36:04.805Z,16.00
2019-05-01T21:46:07.604Z,15.80
2019-05-01T21:56:12.910Z,15.60
2019-05-01T22:06:18.259Z,15.60
2019-05-01T22:16:25.927Z,15.60
2019-05-01T22:26:32.983Z,15.80
2019-05-01T22:36:38.465Z,15.90
2019-05-01T22:46:43.812Z,15.90
2019-05-01T22:56:49.203Z,15.90
2019-05-01T23:06:55.106Z,15.90
2019-05-01T23:17:21.944Z,15.90
2019-05-01T23:27:29.395Z,15.80
2019-05-01T23:37:34.387Z,15.80
2019-05-01T23:47:39.771Z,15.80
2019-05-01T23:57:45.113Z,15.70
